sensor_id;sensor_type;location;lat;lon;timestamp;P1;durP1;ratioP1;P2;durP2;ratioP2
36745;SDS011;22715;52.182;21.206;2023-06-22T00:02:01;35.20;;;31.73;;
36745;SDS011;22715;52.182;21.206;2023-06-22T00:04:27;34.80;;;31.10;;
36745;SDS011;22715;52.182;21.206;2023-06-22T00:06:52;34.53;;;30.85;;
36745;SDS011;22715;52.182;21.206;2023-06-22T00:09:18;37.72;;;31.90;;
36745;SDS011;22715;52.182;21.206;2023-06-22T00:11:44;34.13;;;30.67;;
36745;SDS011;22715;52.182;21.206;2023-06-22T00:14:10;34.55;;;31.05;;
36745;SDS011;22715;52.182;21.206;2023-06-22T00:16:36;37.85;;;33.85;;
36745;SDS011;22715;52.182;21.206;2023-06-22T00:19:08;34.65;;;31.02;;
36745;SDS011;22715;52.182;21.206;2023-06-22T00:21:36;39.60;;;33.38;;
36745;SDS011;22715;52.182;21.206;2023-06-22T00:24:03;35.95;;;32.15;;
36745;SDS011;22715;52.182;21.206;2023-06-22T00:26:37;37.97;;;34.05;;
36745;SDS011;22715;52.182;21.206;2023-06-22T00:29:03;36.42;;;32.78;;
36745;SDS011;22715;52.182;21.206;2023-06-22T00:31:29;36.03;;;32.53;;
36745;SDS011;22715;52.182;21.206;2023-06-22T00:33:55;37.78;;;33.58;;
36745;SDS011;22715;52.182;21.206;2023-06-22T00:36:23;36.45;;;32.65;;
36745;SDS011;22715;52.182;21.206;2023-06-22T00:38:50;37.17;;;33.47;;
36745;SDS011;22715;52.182;21.206;2023-06-22T00:41:16;37.70;;;33.00;;
36745;SDS011;22715;52.182;21.206;2023-06-22T00:43:47;36.72;;;33.00;;
36745;SDS011;22715;52.182;21.206;2023-06-22T00:46:15;36.22;;;32.67;;
36745;SDS011;22715;52.182;21.206;2023-06-22T00:48:41;34.78;;;30.83;;
36745;SDS011;22715;52.182;21.206;2023-06-22T00:51:09;34.55;;;31.13;;
36745;SDS011;22715;52.182;21.206;2023-06-22T00:53:36;34.25;;;30.70;;
36745;SDS011;22715;52.182;21.206;2023-06-22T00:56:04;35.53;;;32.03;;
36745;SDS011;22715;52.182;21.206;2023-06-22T00:58:30;34.90;;;31.20;;
36745;SDS011;22715;52.182;21.206;2023-06-22T01:00:56;36.75;;;32.95;;
36745;SDS011;22715;52.182;21.206;2023-06-22T01:03:21;35.58;;;31.85;;
36745;SDS011;22715;52.182;21.206;2023-06-22T01:05:47;33.92;;;30.55;;
36745;SDS011;22715;52.182;21.206;2023-06-22T01:13:32;32.60;;;29.30;;
36745;SDS011;22715;52.182;21.206;2023-06-22T01:16:02;34.10;;;30.80;;
36745;SDS011;22715;52.182;21.206;2023-06-22T01:18:28;35.35;;;31.65;;
36745;SDS011;22715;52.182;21.206;2023-06-22T01:20:55;34.88;;;31.35;;
36745;SDS011;22715;52.182;21.206;2023-06-22T01:25:53;34.03;;;30.38;;
36745;SDS011;22715;52.182;21.206;2023-06-22T01:30:47;33.83;;;30.50;;
36745;SDS011;22715;52.182;21.206;2023-06-22T01:33:14;34.42;;;30.73;;
36745;SDS011;22715;52.182;21.206;2023-06-22T01:35:40;33.97;;;30.45;;
36745;SDS011;22715;52.182;21.206;2023-06-22T01:38:06;34.75;;;30.73;;
36745;SDS011;22715;52.182;21.206;2023-06-22T01:40:32;36.65;;;31.10;;
36745;SDS011;22715;52.182;21.206;2023-06-22T01:43:01;34.67;;;31.00;;
36745;SDS011;22715;52.182;21.206;2023-06-22T01:45:27;35.17;;;31.55;;
36745;SDS011;22715;52.182;21.206;2023-06-22T01:47:53;36.35;;;32.72;;
36745;SDS011;22715;52.182;21.206;2023-06-22T01:50:19;35.75;;;31.88;;
36745;SDS011;22715;52.182;21.206;2023-06-22T01:52:44;36.50;;;32.53;;
36745;SDS011;22715;52.182;21.206;2023-06-22T01:55:12;37.72;;;32.65;;
36745;SDS011;22715;52.182;21.206;2023-06-22T01:57:45;34.70;;;31.05;;
36745;SDS011;22715;52.182;21.206;2023-06-22T02:02:51;35.20;;;31.40;;
36745;SDS011;22715;52.182;21.206;2023-06-22T02:16:23;36.75;;;32.88;;
36745;SDS011;22715;52.182;21.206;2023-06-22T02:18:49;33.40;;;29.92;;
36745;SDS011;22715;52.182;21.206;2023-06-22T02:24:05;33.15;;;29.67;;
36745;SDS011;22715;52.182;21.206;2023-06-22T02:26:40;33.20;;;29.90;;
36745;SDS011;22715;52.182;21.206;2023-06-22T02:29:07;36.63;;;32.50;;
36745;SDS011;22715;52.182;21.206;2023-06-22T02:31:38;35.13;;;31.33;;
36745;SDS011;22715;52.182;21.206;2023-06-22T02:34:04;36.88;;;32.42;;
36745;SDS011;22715;52.182;21.206;2023-06-22T02:36:30;35.55;;;31.92;;
36745;SDS011;22715;52.182;21.206;2023-06-22T02:38:56;34.95;;;31.30;;
36745;SDS011;22715;52.182;21.206;2023-06-22T02:41:24;36.95;;;30.55;;
36745;SDS011;22715;52.182;21.206;2023-06-22T02:43:50;37.40;;;33.47;;
36745;SDS011;22715;52.182;21.206;2023-06-22T02:46:15;35.80;;;31.67;;
36745;SDS011;22715;52.182;21.206;2023-06-22T02:48:45;36.85;;;33.03;;
36745;SDS011;22715;52.182;21.206;2023-06-22T02:51:11;36.13;;;31.77;;
36745;SDS011;22715;52.182;21.206;2023-06-22T02:53:40;34.85;;;31.40;;
36745;SDS011;22715;52.182;21.206;2023-06-22T02:58:51;35.85;;;32.15;;
36745;SDS011;22715;52.182;21.206;2023-06-22T03:01:18;34.67;;;31.02;;
36745;SDS011;22715;52.182;21.206;2023-06-22T03:03:52;37.70;;;32.45;;
36745;SDS011;22715;52.182;21.206;2023-06-22T03:06:20;40.30;;;35.08;;
36745;SDS011;22715;52.182;21.206;2023-06-22T03:09:00;34.38;;;30.77;;
36745;SDS011;22715;52.182;21.206;2023-06-22T03:11:36;34.70;;;31.17;;
36745;SDS011;22715;52.182;21.206;2023-06-22T03:14:03;36.38;;;32.58;;
36745;SDS011;22715;52.182;21.206;2023-06-22T03:16:35;37.83;;;33.72;;
36745;SDS011;22715;52.182;21.206;2023-06-22T03:19:01;37.53;;;33.65;;
36745;SDS011;22715;52.182;21.206;2023-06-22T03:21:28;35.72;;;31.98;;
36745;SDS011;22715;52.182;21.206;2023-06-22T03:23:55;36.92;;;33.00;;
36745;SDS011;22715;52.182;21.206;2023-06-22T03:26:20;38.28;;;34.13;;
36745;SDS011;22715;52.182;21.206;2023-06-22T03:28:46;37.67;;;33.67;;
36745;SDS011;22715;52.182;21.206;2023-06-22T03:31:16;36.67;;;32.60;;
36745;SDS011;22715;52.182;21.206;2023-06-22T03:36:17;38.38;;;32.83;;
36745;SDS011;22715;52.182;21.206;2023-06-22T03:38:48;37.35;;;33.42;;
36745;SDS011;22715;52.182;21.206;2023-06-22T03:41:13;45.92;;;38.13;;
36745;SDS011;22715;52.182;21.206;2023-06-22T03:43:44;38.97;;;34.90;;
36745;SDS011;22715;52.182;21.206;2023-06-22T03:46:15;39.70;;;35.50;;
36745;SDS011;22715;52.182;21.206;2023-06-22T03:48:41;37.83;;;33.83;;
36745;SDS011;22715;52.182;21.206;2023-06-22T03:51:07;40.22;;;36.05;;
36745;SDS011;22715;52.182;21.206;2023-06-22T03:53:33;38.35;;;33.88;;
36745;SDS011;22715;52.182;21.206;2023-06-22T03:55:59;38.72;;;34.28;;
36745;SDS011;22715;52.182;21.206;2023-06-22T03:58:25;42.42;;;36.80;;
36745;SDS011;22715;52.182;21.206;2023-06-22T04:00:56;45.42;;;38.55;;
36745;SDS011;22715;52.182;21.206;2023-06-22T04:03:21;41.47;;;36.95;;
36745;SDS011;22715;52.182;21.206;2023-06-22T04:05:49;40.00;;;35.72;;
36745;SDS011;22715;52.182;21.206;2023-06-22T04:08:34;42.50;;;37.45;;
36745;SDS011;22715;52.182;21.206;2023-06-22T04:10:59;47.55;;;38.92;;
36745;SDS011;22715;52.182;21.206;2023-06-22T04:13:27;47.92;;;40.78;;
36745;SDS011;22715;52.182;21.206;2023-06-22T04:15:52;48.78;;;41.95;;
36745;SDS011;22715;52.182;21.206;2023-06-22T04:18:18;46.42;;;41.00;;
36745;SDS011;22715;52.182;21.206;2023-06-22T04:20:44;49.42;;;42.67;;
36745;SDS011;22715;52.182;21.206;2023-06-22T04:23:13;49.80;;;43.13;;
36745;SDS011;22715;52.182;21.206;2023-06-22T04:25:39;49.67;;;43.47;;
36745;SDS011;22715;52.182;21.206;2023-06-22T04:28:04;46.90;;;41.67;;
36745;SDS011;22715;52.182;21.206;2023-06-22T04:30:37;46.42;;;40.75;;
36745;SDS011;22715;52.182;21.206;2023-06-22T04:33:11;52.72;;;44.20;;
36745;SDS011;22715;52.182;21.206;2023-06-22T04:35:36;48.60;;;43.15;;
36745;SDS011;22715;52.182;21.206;2023-06-22T04:38:02;48.78;;;43.45;;
36745;SDS011;22715;52.182;21.206;2023-06-22T04:40:30;44.60;;;39.42;;
36745;SDS011;22715;52.182;21.206;2023-06-22T04:42:55;46.88;;;40.70;;
36745;SDS011;22715;52.182;21.206;2023-06-22T04:45:20;48.25;;;40.35;;
36745;SDS011;22715;52.182;21.206;2023-06-22T04:47:46;43.70;;;39.00;;
36745;SDS011;22715;52.182;21.206;2023-06-22T04:50:12;41.17;;;36.80;;
36745;SDS011;22715;52.182;21.206;2023-06-22T04:52:37;44.03;;;36.15;;
36745;SDS011;22715;52.182;21.206;2023-06-22T04:55:03;41.17;;;34.50;;
36745;SDS011;22715;52.182;21.206;2023-06-22T04:57:30;42.53;;;35.50;;
36745;SDS011;22715;52.182;21.206;2023-06-22T05:00:00;41.72;;;34.13;;
36745;SDS011;22715;52.182;21.206;2023-06-22T05:02:26;37.20;;;32.90;;
36745;SDS011;22715;52.182;21.206;2023-06-22T05:04:52;43.40;;;34.20;;
36745;SDS011;22715;52.182;21.206;2023-06-22T05:07:21;36.63;;;32.58;;
36745;SDS011;22715;52.182;21.206;2023-06-22T05:09:50;40.40;;;33.15;;
36745;SDS011;22715;52.182;21.206;2023-06-22T05:12:18;40.33;;;34.47;;
36745;SDS011;22715;52.182;21.206;2023-06-22T05:14:44;40.72;;;33.63;;
36745;SDS011;22715;52.182;21.206;2023-06-22T05:17:12;38.92;;;32.72;;
36745;SDS011;22715;52.182;21.206;2023-06-22T05:19:38;37.60;;;33.53;;
36745;SDS011;22715;52.182;21.206;2023-06-22T05:22:04;39.08;;;31.35;;
36745;SDS011;22715;52.182;21.206;2023-06-22T05:24:31;38.03;;;31.80;;
36745;SDS011;22715;52.182;21.206;2023-06-22T05:26:56;35.72;;;31.70;;
36745;SDS011;22715;52.182;21.206;2023-06-22T05:29:22;38.20;;;31.10;;
36745;SDS011;22715;52.182;21.206;2023-06-22T05:31:48;37.30;;;31.52;;
36745;SDS011;22715;52.182;21.206;2023-06-22T05:34:13;43.20;;;31.02;;
36745;SDS011;22715;52.182;21.206;2023-06-22T05:36:39;35.33;;;31.02;;
36745;SDS011;22715;52.182;21.206;2023-06-22T05:39:13;38.30;;;31.02;;
36745;SDS011;22715;52.182;21.206;2023-06-22T05:41:40;41.05;;;32.63;;
36745;SDS011;22715;52.182;21.206;2023-06-22T05:44:05;40.30;;;32.90;;
36745;SDS011;22715;52.182;21.206;2023-06-22T05:46:31;37.22;;;31.42;;
36745;SDS011;22715;52.182;21.206;2023-06-22T05:48:56;35.33;;;31.23;;
36745;SDS011;22715;52.182;21.206;2023-06-22T05:51:21;37.05;;;30.75;;
36745;SDS011;22715;52.182;21.206;2023-06-22T05:53:49;36.03;;;31.70;;
36745;SDS011;22715;52.182;21.206;2023-06-22T05:56:15;34.78;;;30.55;;
36745;SDS011;22715;52.182;21.206;2023-06-22T05:58:40;42.05;;;32.40;;
36745;SDS011;22715;52.182;21.206;2023-06-22T06:01:07;35.10;;;31.30;;
36745;SDS011;22715;52.182;21.206;2023-06-22T06:03:32;33.93;;;28.80;;
36745;SDS011;22715;52.182;21.206;2023-06-22T06:05:58;37.53;;;31.42;;
36745;SDS011;22715;52.182;21.206;2023-06-22T06:08:23;34.95;;;30.98;;
36745;SDS011;22715;52.182;21.206;2023-06-22T06:10:49;44.33;;;32.42;;
36745;SDS011;22715;52.182;21.206;2023-06-22T06:13:14;38.33;;;32.25;;
36745;SDS011;22715;52.182;21.206;2023-06-22T06:15:39;37.00;;;30.42;;
36745;SDS011;22715;52.182;21.206;2023-06-22T06:18:05;37.22;;;31.48;;
36745;SDS011;22715;52.182;21.206;2023-06-22T06:20:31;31.88;;;27.67;;
36745;SDS011;22715;52.182;21.206;2023-06-22T06:22:56;33.47;;;28.92;;
36745;SDS011;22715;52.182;21.206;2023-06-22T06:25:22;35.85;;;30.75;;
36745;SDS011;22715;52.182;21.206;2023-06-22T06:27:48;38.72;;;31.35;;
36745;SDS011;22715;52.182;21.206;2023-06-22T06:30:14;42.35;;;35.90;;
36745;SDS011;22715;52.182;21.206;2023-06-22T06:32:40;41.53;;;33.83;;
36745;SDS011;22715;52.182;21.206;2023-06-22T06:35:12;43.75;;;35.30;;
36745;SDS011;22715;52.182;21.206;2023-06-22T06:37:39;45.10;;;36.13;;
36745;SDS011;22715;52.182;21.206;2023-06-22T06:40:05;43.17;;;34.55;;
36745;SDS011;22715;52.182;21.206;2023-06-22T06:42:33;43.63;;;35.20;;
36745;SDS011;22715;52.182;21.206;2023-06-22T06:45:01;36.73;;;32.00;;
36745;SDS011;22715;52.182;21.206;2023-06-22T06:47:26;36.80;;;30.70;;
36745;SDS011;22715;52.182;21.206;2023-06-22T06:49:52;35.97;;;30.27;;
36745;SDS011;22715;52.182;21.206;2023-06-22T06:52:17;34.85;;;30.08;;
36745;SDS011;22715;52.182;21.206;2023-06-22T06:54:44;33.72;;;29.33;;
36745;SDS011;22715;52.182;21.206;2023-06-22T06:57:09;32.42;;;27.05;;
36745;SDS011;22715;52.182;21.206;2023-06-22T06:59:35;32.90;;;27.95;;
36745;SDS011;22715;52.182;21.206;2023-06-22T07:02:01;36.38;;;27.55;;
36745;SDS011;22715;52.182;21.206;2023-06-22T07:04:26;31.30;;;26.83;;
36745;SDS011;22715;52.182;21.206;2023-06-22T07:06:52;28.98;;;25.65;;
36745;SDS011;22715;52.182;21.206;2023-06-22T07:09:17;30.45;;;26.33;;
36745;SDS011;22715;52.182;21.206;2023-06-22T07:11:43;30.38;;;25.27;;
36745;SDS011;22715;52.182;21.206;2023-06-22T07:14:09;33.28;;;27.23;;
36745;SDS011;22715;52.182;21.206;2023-06-22T07:16:35;31.48;;;24.52;;
36745;SDS011;22715;52.182;21.206;2023-06-22T07:19:01;27.98;;;24.88;;
36745;SDS011;22715;52.182;21.206;2023-06-22T07:21:26;23.63;;;21.23;;
36745;SDS011;22715;52.182;21.206;2023-06-22T07:23:51;26.50;;;21.27;;
36745;SDS011;22715;52.182;21.206;2023-06-22T07:26:16;30.92;;;23.75;;
36745;SDS011;22715;52.182;21.206;2023-06-22T07:28:42;28.02;;;24.15;;
36745;SDS011;22715;52.182;21.206;2023-06-22T07:31:07;24.48;;;19.65;;
36745;SDS011;22715;52.182;21.206;2023-06-22T07:33:35;29.67;;;24.30;;
36745;SDS011;22715;52.182;21.206;2023-06-22T07:36:00;27.25;;;22.95;;
36745;SDS011;22715;52.182;21.206;2023-06-22T07:38:27;23.13;;;20.13;;
36745;SDS011;22715;52.182;21.206;2023-06-22T07:40:53;21.00;;;18.55;;
36745;SDS011;22715;52.182;21.206;2023-06-22T07:43:18;19.67;;;17.08;;
36745;SDS011;22715;52.182;21.206;2023-06-22T07:45:50;17.55;;;15.68;;
36745;SDS011;22715;52.182;21.206;2023-06-22T07:48:17;17.40;;;15.15;;
36745;SDS011;22715;52.182;21.206;2023-06-22T07:50:42;16.50;;;14.10;;
36745;SDS011;22715;52.182;21.206;2023-06-22T07:53:08;16.13;;;14.55;;
36745;SDS011;22715;52.182;21.206;2023-06-22T07:55:33;18.88;;;16.30;;
36745;SDS011;22715;52.182;21.206;2023-06-22T07:57:59;17.88;;;14.98;;
36745;SDS011;22715;52.182;21.206;2023-06-22T08:00:24;17.58;;;14.93;;
36745;SDS011;22715;52.182;21.206;2023-06-22T08:02:49;16.23;;;13.25;;
36745;SDS011;22715;52.182;21.206;2023-06-22T08:05:15;15.98;;;13.27;;
36745;SDS011;22715;52.182;21.206;2023-06-22T08:07:40;18.70;;;14.43;;
36745;SDS011;22715;52.182;21.206;2023-06-22T08:10:08;16.73;;;14.90;;
36745;SDS011;22715;52.182;21.206;2023-06-22T08:12:35;17.55;;;14.40;;
36745;SDS011;22715;52.182;21.206;2023-06-22T08:15:00;16.45;;;13.10;;
36745;SDS011;22715;52.182;21.206;2023-06-22T08:17:28;15.20;;;12.95;;
36745;SDS011;22715;52.182;21.206;2023-06-22T08:19:54;11.10;;;9.98;;
36745;SDS011;22715;52.182;21.206;2023-06-22T08:22:19;10.20;;;9.20;;
36745;SDS011;22715;52.182;21.206;2023-06-22T08:27:13;8.80;;;7.90;;
36745;SDS011;22715;52.182;21.206;2023-06-22T08:29:39;12.85;;;8.30;;
36745;SDS011;22715;52.182;21.206;2023-06-22T08:32:07;9.77;;;8.77;;
36745;SDS011;22715;52.182;21.206;2023-06-22T08:34:32;8.07;;;7.03;;
36745;SDS011;22715;52.182;21.206;2023-06-22T08:36:57;8.63;;;7.60;;
36745;SDS011;22715;52.182;21.206;2023-06-22T08:39:24;10.07;;;7.15;;
36745;SDS011;22715;52.182;21.206;2023-06-22T08:41:52;6.82;;;5.88;;
36745;SDS011;22715;52.182;21.206;2023-06-22T08:44:18;14.90;;;7.43;;
36745;SDS011;22715;52.182;21.206;2023-06-22T08:46:43;8.05;;;6.35;;
36745;SDS011;22715;52.182;21.206;2023-06-22T08:49:09;8.83;;;6.97;;
36745;SDS011;22715;52.182;21.206;2023-06-22T08:51:35;7.35;;;6.57;;
36745;SDS011;22715;52.182;21.206;2023-06-22T08:54:00;8.10;;;6.38;;
36745;SDS011;22715;52.182;21.206;2023-06-22T08:56:26;7.40;;;6.70;;
36745;SDS011;22715;52.182;21.206;2023-06-22T08:58:51;6.97;;;5.90;;
36745;SDS011;22715;52.182;21.206;2023-06-22T09:01:16;7.75;;;5.68;;
36745;SDS011;22715;52.182;21.206;2023-06-22T09:03:42;10.40;;;6.28;;
36745;SDS011;22715;52.182;21.206;2023-06-22T09:06:07;5.80;;;5.13;;
36745;SDS011;22715;52.182;21.206;2023-06-22T09:08:34;7.70;;;5.47;;
36745;SDS011;22715;52.182;21.206;2023-06-22T09:11:06;5.70;;;5.13;;
36745;SDS011;22715;52.182;21.206;2023-06-22T09:13:32;7.18;;;5.00;;
36745;SDS011;22715;52.182;21.206;2023-06-22T09:16:00;6.03;;;4.60;;
36745;SDS011;22715;52.182;21.206;2023-06-22T09:18:26;7.55;;;4.30;;
36745;SDS011;22715;52.182;21.206;2023-06-22T09:20:51;6.00;;;4.32;;
36745;SDS011;22715;52.182;21.206;2023-06-22T09:23:16;5.30;;;4.60;;
36745;SDS011;22715;52.182;21.206;2023-06-22T09:25:44;8.07;;;4.87;;
36745;SDS011;22715;52.182;21.206;2023-06-22T09:28:13;5.90;;;4.40;;
36745;SDS011;22715;52.182;21.206;2023-06-22T09:30:39;5.10;;;3.85;;
36745;SDS011;22715;52.182;21.206;2023-06-22T09:33:04;4.97;;;3.78;;
36745;SDS011;22715;52.182;21.206;2023-06-22T09:35:29;6.32;;;3.95;;
36745;SDS011;22715;52.182;21.206;2023-06-22T09:37:55;7.45;;;5.53;;
36745;SDS011;22715;52.182;21.206;2023-06-22T09:40:20;4.22;;;3.83;;
36745;SDS011;22715;52.182;21.206;2023-06-22T09:42:45;4.95;;;4.05;;
36745;SDS011;22715;52.182;21.206;2023-06-22T09:45:11;4.03;;;2.63;;
36745;SDS011;22715;52.182;21.206;2023-06-22T09:47:41;3.60;;;3.22;;
36745;SDS011;22715;52.182;21.206;2023-06-22T09:50:08;4.45;;;3.17;;
36745;SDS011;22715;52.182;21.206;2023-06-22T09:52:33;5.40;;;3.92;;
36745;SDS011;22715;52.182;21.206;2023-06-22T09:54:59;4.50;;;3.83;;
36745;SDS011;22715;52.182;21.206;2023-06-22T09:57:24;3.78;;;3.40;;
36745;SDS011;22715;52.182;21.206;2023-06-22T09:59:50;4.20;;;3.20;;
36745;SDS011;22715;52.182;21.206;2023-06-22T10:02:18;4.57;;;3.08;;
36745;SDS011;22715;52.182;21.206;2023-06-22T10:04:44;2.83;;;2.47;;
36745;SDS011;22715;52.182;21.206;2023-06-22T10:07:09;4.05;;;3.28;;
36745;SDS011;22715;52.182;21.206;2023-06-22T10:09:35;4.53;;;3.47;;
36745;SDS011;22715;52.182;21.206;2023-06-22T10:12:00;2.97;;;2.60;;
36745;SDS011;22715;52.182;21.206;2023-06-22T10:14:25;4.68;;;2.60;;
36745;SDS011;22715;52.182;21.206;2023-06-22T10:16:52;5.18;;;2.20;;
36745;SDS011;22715;52.182;21.206;2023-06-22T10:19:17;2.53;;;2.25;;
36745;SDS011;22715;52.182;21.206;2023-06-22T10:21:44;3.67;;;2.50;;
36745;SDS011;22715;52.182;21.206;2023-06-22T10:24:09;4.20;;;2.78;;
36745;SDS011;22715;52.182;21.206;2023-06-22T10:26:35;3.05;;;2.75;;
36745;SDS011;22715;52.182;21.206;2023-06-22T10:29:04;4.32;;;2.80;;
36745;SDS011;22715;52.182;21.206;2023-06-22T10:31:33;3.42;;;2.25;;
36745;SDS011;22715;52.182;21.206;2023-06-22T10:34:01;3.20;;;2.50;;
36745;SDS011;22715;52.182;21.206;2023-06-22T10:36:26;4.15;;;3.15;;
36745;SDS011;22715;52.182;21.206;2023-06-22T10:38:52;5.38;;;3.13;;
36745;SDS011;22715;52.182;21.206;2023-06-22T10:41:18;4.88;;;3.00;;
36745;SDS011;22715;52.182;21.206;2023-06-22T10:43:44;4.38;;;3.10;;
36745;SDS011;22715;52.182;21.206;2023-06-22T10:46:09;4.55;;;2.72;;
36745;SDS011;22715;52.182;21.206;2023-06-22T10:48:34;4.88;;;2.42;;
36745;SDS011;22715;52.182;21.206;2023-06-22T10:51:00;3.47;;;2.40;;
36745;SDS011;22715;52.182;21.206;2023-06-22T10:53:25;5.47;;;2.70;;
36745;SDS011;22715;52.182;21.206;2023-06-22T10:58:39;6.40;;;2.75;;
36745;SDS011;22715;52.182;21.206;2023-06-22T11:01:04;3.50;;;3.00;;
36745;SDS011;22715;52.182;21.206;2023-06-22T11:03:29;3.33;;;2.72;;
36745;SDS011;22715;52.182;21.206;2023-06-22T11:05:55;5.38;;;3.47;;
36745;SDS011;22715;52.182;21.206;2023-06-22T11:08:20;6.43;;;3.25;;
36745;SDS011;22715;52.182;21.206;2023-06-22T11:10:45;4.95;;;2.97;;
36745;SDS011;22715;52.182;21.206;2023-06-22T11:13:11;4.90;;;3.25;;
36745;SDS011;22715;52.182;21.206;2023-06-22T11:15:36;3.40;;;3.08;;
36745;SDS011;22715;52.182;21.206;2023-06-22T11:18:14;6.25;;;3.90;;
36745;SDS011;22715;52.182;21.206;2023-06-22T11:20:43;5.28;;;3.58;;
36745;SDS011;22715;52.182;21.206;2023-06-22T11:25:37;3.47;;;2.93;;
36745;SDS011;22715;52.182;21.206;2023-06-22T11:28:14;3.85;;;3.33;;
36745;SDS011;22715;52.182;21.206;2023-06-22T11:30:39;5.38;;;3.70;;
36745;SDS011;22715;52.182;21.206;2023-06-22T11:33:05;5.35;;;3.67;;
36745;SDS011;22715;52.182;21.206;2023-06-22T11:35:30;6.35;;;3.15;;
36745;SDS011;22715;52.182;21.206;2023-06-22T11:37:56;5.93;;;3.70;;
36745;SDS011;22715;52.182;21.206;2023-06-22T11:40:22;5.03;;;3.20;;
36745;SDS011;22715;52.182;21.206;2023-06-22T11:42:48;3.67;;;2.95;;
36745;SDS011;22715;52.182;21.206;2023-06-22T11:45:13;3.92;;;2.97;;
36745;SDS011;22715;52.182;21.206;2023-06-22T11:47:38;3.60;;;3.30;;
36745;SDS011;22715;52.182;21.206;2023-06-22T11:50:04;3.90;;;2.88;;
36745;SDS011;22715;52.182;21.206;2023-06-22T11:52:30;5.47;;;3.33;;
36745;SDS011;22715;52.182;21.206;2023-06-22T11:54:55;5.95;;;3.92;;
36745;SDS011;22715;52.182;21.206;2023-06-22T11:57:20;3.08;;;2.80;;
36745;SDS011;22715;52.182;21.206;2023-06-22T11:59:46;3.33;;;3.03;;
36745;SDS011;22715;52.182;21.206;2023-06-22T12:02:11;4.63;;;3.53;;
36745;SDS011;22715;52.182;21.206;2023-06-22T12:04:37;4.07;;;3.65;;
36745;SDS011;22715;52.182;21.206;2023-06-22T12:07:04;4.22;;;3.22;;
36745;SDS011;22715;52.182;21.206;2023-06-22T12:09:32;4.60;;;3.15;;
36745;SDS011;22715;52.182;21.206;2023-06-22T12:12:00;4.28;;;3.50;;
36745;SDS011;22715;52.182;21.206;2023-06-22T12:14:26;4.15;;;3.13;;
36745;SDS011;22715;52.182;21.206;2023-06-22T12:16:54;8.65;;;3.67;;
36745;SDS011;22715;52.182;21.206;2023-06-22T12:19:25;4.50;;;3.60;;
36745;SDS011;22715;52.182;21.206;2023-06-22T12:21:52;3.22;;;2.92;;
36745;SDS011;22715;52.182;21.206;2023-06-22T12:24:19;6.18;;;4.07;;
36745;SDS011;22715;52.182;21.206;2023-06-22T12:26:47;4.80;;;3.90;;
36745;SDS011;22715;52.182;21.206;2023-06-22T12:31:47;4.65;;;3.00;;
36745;SDS011;22715;52.182;21.206;2023-06-22T12:34:14;5.53;;;3.88;;
36745;SDS011;22715;52.182;21.206;2023-06-22T12:36:39;4.93;;;3.63;;
36745;SDS011;22715;52.182;21.206;2023-06-22T12:39:10;8.10;;;3.38;;
36745;SDS011;22715;52.182;21.206;2023-06-22T12:41:36;6.78;;;5.10;;
36745;SDS011;22715;52.182;21.206;2023-06-22T12:49:39;6.57;;;4.18;;
36745;SDS011;22715;52.182;21.206;2023-06-22T12:54:44;5.72;;;3.85;;
36745;SDS011;22715;52.182;21.206;2023-06-22T12:57:19;3.88;;;3.58;;
36745;SDS011;22715;52.182;21.206;2023-06-22T13:02:23;4.38;;;3.85;;
36745;SDS011;22715;52.182;21.206;2023-06-22T13:04:50;3.85;;;3.45;;
36745;SDS011;22715;52.182;21.206;2023-06-22T13:09:44;8.40;;;3.92;;
36745;SDS011;22715;52.182;21.206;2023-06-22T13:12:11;4.95;;;3.10;;
36745;SDS011;22715;52.182;21.206;2023-06-22T13:14:37;4.45;;;4.07;;
36745;SDS011;22715;52.182;21.206;2023-06-22T13:17:09;5.30;;;3.40;;
36745;SDS011;22715;52.182;21.206;2023-06-22T13:19:45;5.68;;;3.35;;
36745;SDS011;22715;52.182;21.206;2023-06-22T13:27:27;5.50;;;3.37;;
36745;SDS011;22715;52.182;21.206;2023-06-22T13:30:05;4.22;;;3.08;;
36745;SDS011;22715;52.182;21.206;2023-06-22T13:32:32;5.53;;;4.30;;
36745;SDS011;22715;52.182;21.206;2023-06-22T13:35:01;4.78;;;3.45;;
36745;SDS011;22715;52.182;21.206;2023-06-22T13:37:28;4.05;;;3.55;;
36745;SDS011;22715;52.182;21.206;2023-06-22T13:39:54;8.50;;;2.92;;
36745;SDS011;22715;52.182;21.206;2023-06-22T13:42:21;4.38;;;3.38;;
36745;SDS011;22715;52.182;21.206;2023-06-22T13:44:46;8.32;;;3.40;;
36745;SDS011;22715;52.182;21.206;2023-06-22T13:47:13;5.03;;;3.10;;
36745;SDS011;22715;52.182;21.206;2023-06-22T13:49:42;7.55;;;3.58;;
36745;SDS011;22715;52.182;21.206;2023-06-22T13:54:38;4.40;;;3.08;;
36745;SDS011;22715;52.182;21.206;2023-06-22T13:57:05;4.65;;;3.50;;
36745;SDS011;22715;52.182;21.206;2023-06-22T14:02:02;5.55;;;3.30;;
36745;SDS011;22715;52.182;21.206;2023-06-22T14:04:31;4.30;;;3.67;;
36745;SDS011;22715;52.182;21.206;2023-06-22T14:06:56;4.43;;;3.70;;
36745;SDS011;22715;52.182;21.206;2023-06-22T14:09:22;3.90;;;3.50;;
36745;SDS011;22715;52.182;21.206;2023-06-22T14:11:47;4.35;;;3.95;;
36745;SDS011;22715;52.182;21.206;2023-06-22T14:14:12;4.20;;;3.80;;
36745;SDS011;22715;52.182;21.206;2023-06-22T14:16:37;3.60;;;3.30;;
36745;SDS011;22715;52.182;21.206;2023-06-22T14:19:03;4.13;;;3.63;;
36745;SDS011;22715;52.182;21.206;2023-06-22T14:21:29;7.22;;;4.53;;
36745;SDS011;22715;52.182;21.206;2023-06-22T14:23:54;3.63;;;3.33;;
36745;SDS011;22715;52.182;21.206;2023-06-22T14:26:22;5.25;;;4.18;;
36745;SDS011;22715;52.182;21.206;2023-06-22T14:28:47;5.68;;;3.88;;
36745;SDS011;22715;52.182;21.206;2023-06-22T14:31:22;4.38;;;3.40;;
36745;SDS011;22715;52.182;21.206;2023-06-22T14:33:57;4.22;;;3.83;;
36745;SDS011;22715;52.182;21.206;2023-06-22T14:36:27;5.15;;;3.55;;
36745;SDS011;22715;52.182;21.206;2023-06-22T14:39:11;4.00;;;3.50;;
36745;SDS011;22715;52.182;21.206;2023-06-22T14:44:20;5.63;;;4.07;;
36745;SDS011;22715;52.182;21.206;2023-06-22T14:46:49;5.28;;;4.10;;
36745;SDS011;22715;52.182;21.206;2023-06-22T14:49:16;5.20;;;3.90;;
36745;SDS011;22715;52.182;21.206;2023-06-22T14:51:47;4.80;;;3.97;;
36745;SDS011;22715;52.182;21.206;2023-06-22T14:56:51;5.45;;;4.60;;
36745;SDS011;22715;52.182;21.206;2023-06-22T15:02:02;5.57;;;5.03;;
36745;SDS011;22715;52.182;21.206;2023-06-22T15:07:02;5.43;;;4.50;;
36745;SDS011;22715;52.182;21.206;2023-06-22T15:09:27;6.10;;;4.15;;
36745;SDS011;22715;52.182;21.206;2023-06-22T15:12:02;5.20;;;4.32;;
36745;SDS011;22715;52.182;21.206;2023-06-22T15:14:34;5.97;;;4.13;;
36745;SDS011;22715;52.182;21.206;2023-06-22T15:17:21;4.70;;;4.30;;
36745;SDS011;22715;52.182;21.206;2023-06-22T15:22:20;4.72;;;4.32;;
36745;SDS011;22715;52.182;21.206;2023-06-22T15:24:45;5.53;;;4.30;;
36745;SDS011;22715;52.182;21.206;2023-06-22T15:27:13;4.80;;;4.30;;
36745;SDS011;22715;52.182;21.206;2023-06-22T15:29:40;5.05;;;4.55;;
36745;SDS011;22715;52.182;21.206;2023-06-22T15:32:07;6.10;;;4.43;;
36745;SDS011;22715;52.182;21.206;2023-06-22T15:34:32;5.63;;;4.70;;
36745;SDS011;22715;52.182;21.206;2023-06-22T15:36:58;8.95;;;4.47;;
36745;SDS011;22715;52.182;21.206;2023-06-22T15:39:25;6.78;;;4.60;;